Nearby METAR Reports

 

EGUW - Wattisham Raf, United Kingdom
Distance from station: SW 12mi, 19km
Updated: 17/06/2018 23:50
Partly cloudy
Partly cloudy
 Wind from SW
Wind: SW 12 mph , 19 km/h
Temperature: 15°C
Dew Point: 13°C
Humidity: 88%
Barometer: 1016 hPa
Clouds: Partly cloudy
Visibility: 6 miles , 10 km
Cloud details: Mostly cloudy 244 m
Partly cloudy 1524 m
2018/06/17 22:50 EGUW 172250Z AUTO 22010KT 9999 BKN008/// SCT050/// 15/13 Q1016
EGUL - Lakenheath Raf, United Kingdom
Distance from station: WNW 29mi, 47km
Updated: 18/06/2018 00:22
Overcast
Overcast
 Wind from SSW
Wind: SSW 15 mph , 24 km/h
Temperature: 16°C
Dew Point: 13°C
Humidity: 83%
Barometer: 1014.6 hPa
Clouds: Overcast
Visibility: 6 miles , 10 km
Cloud details: Few Clouds 732 m
Partly cloudy 914 m
Mostly cloudy 1128 m
Overcast 1433 m
2018/06/17 23:22 EGUL 172322Z AUTO 21013KT 9999 FEW024 SCT030 BKN037 OVC047 16/13 A2996 RMK AO2 DZB14E22 SLP148 $
 
EGUN - Mildenhall Raf, United Kingdom
Distance from station: WNW 32mi, 51km
Updated: 18/06/2018 00:22
Mostly cloudy
Mostly cloudy
 Wind from SSW
Wind: SSW 13 mph , 20 km/h
Temperature: 15°C
Dew Point: 15°C
Humidity: 100%
Barometer: 1015.2 hPa
Clouds: Mostly cloudy
Visibility: 6 miles , 10 km
Cloud details: Mostly cloudy 945 m
Mostly cloudy 1341 m
2018/06/17 23:22 EGUN 172322Z AUTO 21011KT 9999 BKN031 BKN044 15/15 A2998 RMK AO2 RAE22 SLP155 $
EGSH - Norwich Wea Cntr, United Kingdom
Distance from station: N 32mi, 52km
Updated: 18/06/2018 00:20
Mostly cloudy
Mostly cloudy
 Wind from SSW
Wind: SSW 10 mph , 17 km/h
Temperature: 15°C
Dew Point: 13°C
Humidity: 88%
Barometer: 1015 hPa
Clouds: Mostly cloudy
Visibility: 6 miles , 10 km
Cloud details: Mostly cloudy 1219 m
2018/06/17 23:20 EGSH 172320Z AUTO 21009KT 9999 BKN040/// 15/13 Q1015
 
EGYM - Marham Raf, United Kingdom
Distance from station: NW 39mi, 62km
Updated: 17/06/2018 23:50
Overcast
Overcast
 Wind from SSW
Wind: SSW 12 mph , 19 km/h
Temperature: 15°C
Dew Point: 13°C
Humidity: 88%
Barometer: 1015 hPa
Clouds: Overcast
Visibility: 6 miles , 10 km
Cloud details: Overcast 549 m
2018/06/17 22:50 EGYM 172250Z 21010KT 9999 OVC018 15/13 Q1015 WHT
EGSC - Cambridge, United Kingdom
Distance from station: W 43mi, 69km
Updated: 17/06/2018 17:50
NOT Current
Partly cloudy
Partly cloudy
 Wind from SW
Wind: SW 12 mph , 19 km/h
Temperature: 18°C
Dew Point: 11°C
Humidity: 64%
Barometer: 1015 hPa
Clouds: Partly cloudy
Visibility: 6 miles , 10 km
Cloud details: Few Clouds 914 m
Partly cloudy 1036 m
2018/06/17 16:50 EGSC 171650Z 23010KT 200V260 9999 FEW030 SCT034 18/11 Q1015
 
EGSS - Stansted Airport, United Kingdom
Distance from station: WSW 47mi, 76km
Updated: 18/06/2018 00:20
Overcast
Overcast
 Wind from SW
Wind: SW 13 mph , 20 km/h
Temperature: 15°C
Dew Point: 14°C
Humidity: 94%
Barometer: 1016 hPa
Clouds: Overcast
Visibility: 6 miles , 10 km
Cloud details: Overcast 244 m
2018/06/17 23:20 EGSS 172320Z 22011KT 9999 OVC008 15/14 Q1016
EGMC - Southend-On-Sea, United Kingdom
Distance from station: SSW 50mi, 80km
Updated: 18/06/2018 00:20
Mostly cloudy
Mostly cloudy
 Wind from SSW
Wind: SSW 13 mph , 20 km/h
Temperature: 15°C
Dew Point: 13°C
Humidity: 88%
Barometer: 1016 hPa
Clouds: Mostly cloudy
Visibility: 6 miles , 10 km
Cloud details: Mostly cloudy 213 m
2018/06/17 23:20 EGMC 172320Z 21011KT 9999 BKN007 15/13 Q1016